Nearby METAR (Airport) Reports

 

KPRN - Greenville, Alabama, USA
Distance from station: WNW 17mi, 28km
Updated: Mon, 23-Oct-2017 9:56pm CDT
Clear
Clear
 Wind from NNW
Wind: NNW 5 mph , 7 km/h
Temperature: 57°F , 14°C
Dew Point: 52°F , 11°C
Humidity: 82%
Barometer: 29.99 inHg , 1015.6 hPa
Clouds: Clear
Visibility: 10 miles , 16 km
2017/10/24 02:56 KPRN 240256Z AUTO 34004KT 10SM CLR 14/11 A2999 RMK AO2 SLP154 T01390106 53004
KTOI - Troy, Alabama, USA
Distance from station: ENE 21mi, 34km
Updated: Mon, 23-Oct-2017 9:53pm CDT
Clear
Clear
 Wind from NW
Wind: NW 5 mph , 7 km/h
Temperature: 55°F , 13°C
Dew Point: 54°F , 12°C
Humidity: 94%
Barometer: 30.01 inHg , 1016.3 hPa
Clouds: Clear
Visibility: 10 miles , 16 km
2017/10/24 02:53 KTOI 240253Z AUTO 31004KT 10SM CLR 13/12 A3001 RMK AO2 SLP158 T01330117 53008 $
K79J - Andalusia/Opp Ar, Alabama, USA
Distance from station: S 29mi, 47km
Updated: Mon, 23-Oct-2017 9:56pm CDT
Clear
Clear
 Wind from calm
Wind: Calm
Temperature: 57°F , 14°C
Dew Point: 54°F , 12°C
Humidity: 88%
Barometer: 30.01 inHg , 1016.3 hPa
Clouds: Clear
Visibility: 10 miles , 16 km
2017/10/24 02:56 K79J 240256Z AUTO 00000KT 10SM CLR 14/12 A3001 RMK AO2 SLP159 T01440117 53010
 
KMGM - Montgomery, Alabama, USA
Distance from station: N 39mi, 63km
Updated: Mon, 23-Oct-2017 9:53pm CDT
Clear
Clear
 Wind from calm
Wind: Calm
Temperature: 57°F , 14°C
Dew Point: 52°F , 11°C
Humidity: 82%
Barometer: 30.01 inHg , 1016.3 hPa
Clouds: Clear
Visibility: 10 miles , 16 km
2017/10/24 02:53 KMGM 240253Z 00000KT 10SM CLR 14/11 A3001 RMK AO2 SLP160 T01390106 51007
KMXF - Maxwell Afb/Mgm, Alabama, USA
Distance from station: N 44mi, 70km
Updated: Mon, 23-Oct-2017 9:56pm CDT
Clear
Clear
 Wind from calm
Wind: Calm
Temperature: 57°F , 14°C
Dew Point: 54°F , 12°C
Humidity: 88%
Barometer: 30.00 inHg , 1015.9 hPa
Clouds: Clear
Visibility: 10 miles , 16 km
2017/10/24 02:56 KMXF 240256Z AUTO 00000KT 10SM CLR 14/12 A3000 RMK AO2 SLP161 T01350122 50006
KLOR - Lowe Ahp/Ft. Ruc, Alabama, USA
Distance from station: SE 44mi, 71km
Updated: Mon, 23-Oct-2017 10:23pm CDT
Clear
Clear
 Wind from NNW
Wind: NNW 3 mph , 6 km/h
Temperature: 57°F , 14°C
Dew Point: 54°F , 12°C
Humidity: 88%
Barometer: 30.01 inHg , 1016.3 hPa
Clouds: Clear
Visibility: 10 miles , 16 km
2017/10/24 03:23 KLOR 240323Z AUTO 33003KT 10SM CLR 14/12 A3001 RMK AO2 SLP144
 
KGZH - Evergreen, Alabama, USA
Distance from station: WSW 46mi, 75km
Updated: Mon, 23-Oct-2017 9:53pm CDT
Clear
Clear
 Wind from calm
Wind: Calm
Temperature: 54°F , 12°C
Dew Point: 52°F , 11°C
Humidity: 94%
Barometer: 30.01 inHg , 1016.3 hPa
Clouds: Clear
Visibility: 9 miles , 14 km
2017/10/24 02:53 KGZH 240253Z AUTO 00000KT 9SM CLR 12/11 A3001 RMK AO2 SLP162 T01220111 53008
K0J4 - Florala Muni, Alabama, USA
Distance from station: S 47mi, 76km
Updated: Mon, 23-Oct-2017 9:58pm CDT
Clear
Clear
 Wind from calm
Wind: Calm
Temperature: 55°F , 13°C
Dew Point: 54°F , 12°C
Humidity: 94%
Barometer: 30.04 inHg , 1017.3 hPa
Clouds: Clear
Visibility: 10 miles , 16 km
2017/10/24 02:58 K0J4 240258Z AUTO 00000KT 10SM CLR 13/12 A3004 RMK AO2 SLP169 T01330117 53012 $
KOZR - Ozark/Cairns Aaf, Alabama, USA
Distance from station: SE 49mi, 78km
Updated: Mon, 23-Oct-2017 10:31pm CDT
Clear
Clear
 Wind from WNW
Wind: WNW 3 mph , 6 km/h
Temperature: 57°F , 14°C
Dew Point: 54°F , 12°C
Humidity: 88%
Barometer: 30.01 inHg , 1016.3 hPa
Clouds: Clear
Visibility: 10 miles , 16 km
2017/10/24 03:31 KOZR 240331Z AUTO 30003KT 10SM CLR 14/12 A3001 RMK AO2 SLP163
 
KHEY - Ft Rucker/Hanche, Alabama, USA
Distance from station: ESE 49mi, 79km
Updated: Mon, 23-Oct-2017 9:58pm CDT
Clear
Clear
 Wind from NW
Wind: NW 3 mph , 6 km/h
Temperature: 57°F , 14°C
Dew Point: 54°F , 12°C
Humidity: 88%
Barometer: 29.99 inHg , 1015.6 hPa
Clouds: Clear
Visibility: 10 miles , 16 km
2017/10/24 02:58 KHEY 240258Z AUTO 32003KT 10SM CLR 14/12 A2999 RMK AO2 SLP156 T01360124 52010 $
KDHN - Dothan, Alabama, USA
Distance from station: ESE 61mi, 97km
Updated: Mon, 23-Oct-2017 9:53pm CDT
Clear
Clear
 Wind from NNW
Wind: NNW 7 mph , 11 km/h
Temperature: 59°F , 15°C
Dew Point: 55°F , 13°C
Humidity: 88%
Barometer: 30.02 inHg , 1016.6 hPa
Clouds: Clear
Visibility: 10 miles , 16 km
2017/10/24 02:53 KDHN 240253Z AUTO 33006KT 10SM CLR 15/13 A3002 RMK AO2 SLP162 T01500128 51011
KCEW - Crestview, Florida, USA
Distance from station: S 66mi, 107km
Updated: Mon, 23-Oct-2017 9:53pm CDT
Clear
Clear
 Wind from N
Wind: N 3 mph , 6 km/h
Temperature: 55°F , 13°C
Dew Point: 54°F , 12°C
Humidity: 94%
Barometer: 30.02 inHg , 1016.6 hPa
Clouds: Clear
Visibility: 10 miles , 16 km
2017/10/24 02:53 KCEW 240253Z AUTO 36003KT 10SM CLR 13/12 A3002 RMK AO2 SLP165 T01330122 53013
 
KEUF - Eufaula, Alabama, USA
Distance from station: ENE 73mi, 118km
Updated: Mon, 23-Oct-2017 9:58pm CDT
Clear
Clear
 Wind from calm
Wind: Calm
Temperature: 55°F , 13°C
Dew Point: 54°F , 12°C
Humidity: 94%
Barometer: 29.98 inHg , 1015.2 hPa
Clouds: Clear
Visibility: 10 miles , 16 km
2017/10/24 02:58 KEUF 240258Z AUTO 00000KT 10SM CLR 13/12 A2998 RMK AO2 SLP150 T01330122 51014
KJKA - Gulf Shores, Alabama, USA
Distance from station: SSW 132mi, 212km
Updated: Mon, 23-Oct-2017 10:35pm CDT
Clear
Clear
 Wind from calm
Wind: Calm
Temperature: 57°F , 14°C
Dew Point: 57°F , 14°C
Humidity: 100%
Barometer: 30.03 inHg , 1016.9 hPa
Clouds: Clear
Visibility: 10 miles , 16 km
2017/10/24 03:35 KJKA 240335Z AUTO 00000KT 10SM CLR 14/14 A3003 RMK AO2 T01370135
KLSF - Ft Benning/Colum, Georgia, USA
Distance from station: SNE 89mi, 143km
Updated: Mon, 23-Oct-2017 9:56pm CDT
Clear
Clear
 Wind from calm
Wind: Calm
Temperature: 55°F , 13°C
Dew Point: 55°F , 13°C
Humidity: 100%
Barometer: 29.98 inHg , 1015.2 hPa
Clouds: Clear
Visibility: 10 miles , 16 km
2017/10/24 02:56 KLSF 240256Z AUTO 00000KT 10SM CLR 13/13 A2998 RMK AO2 SLP156 T01250125 52013
 
KMOB - Mobile/Bates, Alabama, USA
Distance from station: SW 125mi, 202km
Updated: Mon, 23-Oct-2017 9:56pm CDT
Clear
Clear
 Wind from calm
Wind: Calm
Temperature: 55°F , 13°C
Dew Point: 52°F , 11°C
Humidity: 88%
Barometer: 30.05 inHg , 1017.6 hPa
Clouds: Clear
Visibility: 10 miles , 16 km
2017/10/24 02:56 KMOB 240256Z 00000KT 10SM CLR 13/11 A3005 RMK AO2 SLP173 T01280111 53016
KNMM - Meridian Nas, Mississippi, USA
Distance from station: WNW 151mi, 243km
Updated: Mon, 23-Oct-2017 9:56pm CDT
Clear
Clear
 Wind from calm
Wind: Calm
Temperature: 54°F , 12°C
Dew Point: 50°F , 10°C
Humidity: 88%
Barometer: 30.02 inHg , 1016.6 hPa
Clouds: Clear
Visibility: 10 miles , 16 km
2017/10/24 02:56 KNMM 240256Z 00000KT 10SM CLR 12/10 A3002 RMK AO2 SLP175 T01170100 51006
KQHY - Hurlbert (Ft Walton Bch), Florida, USA
Distance from station: S 94mi, 151km
Updated: Mon, 23-Oct-2017 9:56pm CDT
Clear
Clear
 Wind from calm
Wind: Calm
Temperature: 59°F , 15°C
Dew Point: 55°F , 13°C
Humidity: 88%
Barometer: 30.02 inHg , 1016.6 hPa
Clouds: Clear
Visibility: 10 miles , 16 km
2017/10/24 02:56 KQHY 240256Z AUTO 00000KT 10SM CLR 15/13 A3002 RMK AO2 SLP172 T01530129 52016
 
KTCL - Tuscaloosa, Alabama, USA
Distance from station: NNW 129mi, 207km
Updated: Mon, 23-Oct-2017 9:53pm CDT
Clear
Clear
 Wind from calm
Wind: Calm
Temperature: 52°F , 11°C
Dew Point: 52°F , 11°C
Humidity: 100%
Barometer: 30.00 inHg , 1015.9 hPa
Clouds: Clear
Visibility: 10 miles , 16 km
2017/10/24 02:53 KTCL 240253Z AUTO 00000KT 10SM CLR 11/11 A3000 RMK AO2 SLP159 T01060106 51005
KECP - Panama City, Florida, USA
Distance from station: SSE 122mi, 196km
Updated: Mon, 23-Oct-2017 9:53pm CDT
Clear
Clear
 Wind from NW
Wind: NW 6 mph , 9 km/h
Temperature: 61°F , 16°C
Dew Point: 55°F , 13°C
Humidity: 83%
Barometer: 29.98 inHg , 1015.2 hPa
Clouds: Clear
Visibility: 10 miles , 16 km
2017/10/24 02:53 KECP 240253Z AUTO 31005KT 10SM CLR 16/13 A2998 RMK AO2 SLP163 T01610133 51015
KCBM - Columbus Afb, Mississippi, USA
Distance from station: NW 175mi, 282km
Updated: Mon, 23-Oct-2017 9:56pm CDT
Clear
Clear
 Wind from SW
Wind: SW 5 mph , 7 km/h
Temperature: 52°F , 11°C
Dew Point: 48°F , 9°C
Humidity: 88%
Barometer: 29.99 inHg , 1015.6 hPa
Clouds: Clear
Visibility: 10 miles , 16 km
2017/10/24 02:56 KCBM 240256Z AUTO 22004KT 10SM CLR 11/09 A2999 RMK AO2 SLP158 T01090090 51006 TSNO $
 
KBHM - Birmingham, Alabama, USA
Distance from station: N 132mi, 212km
Updated: Mon, 23-Oct-2017 9:53pm CDT
Clear
Clear
 Wind from calm
Wind: Calm
Temperature: 52°F , 11°C
Dew Point: 52°F , 11°C
Humidity: 100%
Barometer: 30.02 inHg , 1016.6 hPa
Clouds: Clear
Visibility: 10 miles , 16 km
2017/10/24 02:53 KBHM 240253Z 00000KT 10SM CLR 11/11 A3002 RMK AO2 SLP162 T01110106 53003
KAAF - Apalachicola, Florida, USA
Distance from station: SSE 156mi, 250km
Updated: Mon, 23-Oct-2017 9:53pm CDT

 
Barometer: 29.96 inHg , 1014.6 hPa
2017/10/24 02:53 KAAF 240253Z AUTO A2996 RMK AO2 SLP147 52014 PWINO $
KATL - Atlanta, Georgia, USA
Distance from station: NE 177mi, 287km
Updated: Mon, 23-Oct-2017 9:52pm CDT
Partly cloudy
Partly cloudy
 Wind from W
Wind: W 9 mph , 15 km/h
Temperature: 55°F , 13°C
Dew Point: 54°F , 12°C
Humidity: 94%
Barometer: 29.96 inHg , 1014.6 hPa
Clouds: Partly cloudy
Visibility: 10 miles , 16 km
Cloud details: Partly cloudy 2600 ft
2017/10/24 02:52 KATL 240252Z 28008KT 10SM SCT026 13/12 A2996 RMK AO2 SLP142 T01330117 51015
 
KGPT - Gulfport, Mississippi, USA
Distance from station: SW 192mi, 309km
Updated: Mon, 23-Oct-2017 9:53pm CDT
Clear
Clear
 Wind from calm
Wind: Calm
Temperature: 57°F , 14°C
Dew Point: 54°F , 12°C
Humidity: 88%
Barometer: 30.04 inHg , 1017.3 hPa
Clouds: Clear
Visibility: 10 miles , 16 km
2017/10/24 02:53 KGPT 240253Z 00000KT 10SM CLR 14/12 A3004 RMK AO2 SLP172 T01390117 53015
KNEW - New Orleans/Lake, Louisiana, USA
Distance from station: SW 255mi, 410km
Updated: Mon, 23-Oct-2017 9:53pm CDT
Clear
Clear
 Wind from N
Wind: N 10 mph , 17 km/h
Temperature: 70°F , 21°C
Dew Point: 46°F , 8°C
Humidity: 43%
Barometer: 30.06 inHg , 1017.9 hPa
Clouds: Clear
Visibility: 10 miles , 16 km
2017/10/24 02:53 KNEW 240253Z AUTO 01009KT 10SM CLR 21/08 A3006 RMK AO2 SLP172 T02060083 51015
KP92 - Salt Point, Louisiana, USA
Distance from station: SW 347mi, 559km
Updated: Mon, 23-Oct-2017 9:53pm CDT

 Wind from calm
Wind: Calm
Temperature: 61°F , 16°C
Dew Point: 54°F , 12°C
Humidity: 77%
Barometer: 30.06 inHg , 1017.9 hPa
2017/10/24 02:53 KP92 240253Z AUTO 00000KT 16/12 A3006 RMK AO1 SLP179 T01560122 51013 $